sensor_id;sensor_type;location;lat;lon;timestamp;P1;durP1;ratioP1;P2;durP2;ratioP2
3101;SDS011;1561;42.666;23.392;2023-07-24T00:01:27;10.90;;;9.02;;
3101;SDS011;1561;42.666;23.392;2023-07-24T00:03:54;12.15;;;9.60;;
3101;SDS011;1561;42.666;23.392;2023-07-24T00:06:24;11.85;;;9.25;;
3101;SDS011;1561;42.666;23.392;2023-07-24T00:08:55;12.63;;;9.68;;
3101;SDS011;1561;42.666;23.392;2023-07-24T00:11:24;11.45;;;9.45;;
3101;SDS011;1561;42.666;23.392;2023-07-24T00:13:51;11.60;;;8.98;;
3101;SDS011;1561;42.666;23.392;2023-07-24T00:16:18;11.98;;;9.05;;
3101;SDS011;1561;42.666;23.392;2023-07-24T00:18:46;12.75;;;9.60;;
3101;SDS011;1561;42.666;23.392;2023-07-24T00:21:14;11.48;;;9.18;;
3101;SDS011;1561;42.666;23.392;2023-07-24T00:23:41;12.73;;;8.80;;
3101;SDS011;1561;42.666;23.392;2023-07-24T00:26:11;15.70;;;9.95;;
3101;SDS011;1561;42.666;23.392;2023-07-24T00:28:39;12.98;;;9.70;;
3101;SDS011;1561;42.666;23.392;2023-07-24T00:31:10;12.18;;;9.70;;
3101;SDS011;1561;42.666;23.392;2023-07-24T00:33:38;12.68;;;10.30;;
3101;SDS011;1561;42.666;23.392;2023-07-24T00:36:04;11.32;;;9.80;;
3101;SDS011;1561;42.666;23.392;2023-07-24T00:38:32;12.63;;;9.63;;
3101;SDS011;1561;42.666;23.392;2023-07-24T00:41:00;17.23;;;10.27;;
3101;SDS011;1561;42.666;23.392;2023-07-24T00:43:29;14.50;;;10.27;;
3101;SDS011;1561;42.666;23.392;2023-07-24T00:45:56;11.15;;;9.27;;
3101;SDS011;1561;42.666;23.392;2023-07-24T00:48:25;11.90;;;9.50;;
3101;SDS011;1561;42.666;23.392;2023-07-24T00:50:53;14.07;;;10.38;;
3101;SDS011;1561;42.666;23.392;2023-07-24T00:53:23;12.32;;;9.82;;
3101;SDS011;1561;42.666;23.392;2023-07-24T00:55:50;11.73;;;9.68;;
3101;SDS011;1561;42.666;23.392;2023-07-24T00:58:18;14.10;;;10.43;;
3101;SDS011;1561;42.666;23.392;2023-07-24T01:00:50;11.82;;;9.50;;
3101;SDS011;1561;42.666;23.392;2023-07-24T01:03:19;11.82;;;9.65;;
3101;SDS011;1561;42.666;23.392;2023-07-24T01:05:48;10.85;;;9.45;;
3101;SDS011;1561;42.666;23.392;2023-07-24T01:08:16;12.70;;;9.93;;
3101;SDS011;1561;42.666;23.392;2023-07-24T01:10:44;12.13;;;9.98;;
3101;SDS011;1561;42.666;23.392;2023-07-24T01:13:14;16.48;;;9.73;;
3101;SDS011;1561;42.666;23.392;2023-07-24T01:15:45;11.15;;;9.82;;
3101;SDS011;1561;42.666;23.392;2023-07-24T01:18:18;19.67;;;9.45;;
3101;SDS011;1561;42.666;23.392;2023-07-24T01:20:48;13.50;;;10.23;;
3101;SDS011;1561;42.666;23.392;2023-07-24T01:23:22;12.50;;;10.13;;
3101;SDS011;1561;42.666;23.392;2023-07-24T01:26:05;13.32;;;10.57;;
3101;SDS011;1561;42.666;23.392;2023-07-24T01:28:34;16.77;;;10.43;;
3101;SDS011;1561;42.666;23.392;2023-07-24T01:31:02;12.25;;;10.20;;
3101;SDS011;1561;42.666;23.392;2023-07-24T01:33:32;10.95;;;9.32;;
3101;SDS011;1561;42.666;23.392;2023-07-24T01:36:02;11.98;;;9.30;;
3101;SDS011;1561;42.666;23.392;2023-07-24T01:38:31;16.25;;;9.65;;
3101;SDS011;1561;42.666;23.392;2023-07-24T01:40:58;12.82;;;9.85;;
3101;SDS011;1561;42.666;23.392;2023-07-24T01:43:29;15.00;;;11.18;;
3101;SDS011;1561;42.666;23.392;2023-07-24T01:45:58;12.55;;;9.77;;
3101;SDS011;1561;42.666;23.392;2023-07-24T01:48:31;12.25;;;10.15;;
3101;SDS011;1561;42.666;23.392;2023-07-24T01:51:02;11.82;;;9.95;;
3101;SDS011;1561;42.666;23.392;2023-07-24T01:53:29;12.50;;;10.00;;
3101;SDS011;1561;42.666;23.392;2023-07-24T01:55:57;12.35;;;10.13;;
3101;SDS011;1561;42.666;23.392;2023-07-24T01:58:24;12.07;;;10.38;;
3101;SDS011;1561;42.666;23.392;2023-07-24T02:01:01;11.50;;;10.13;;
3101;SDS011;1561;42.666;23.392;2023-07-24T02:03:28;14.35;;;10.45;;
3101;SDS011;1561;42.666;23.392;2023-07-24T02:05:55;15.48;;;10.85;;
3101;SDS011;1561;42.666;23.392;2023-07-24T02:08:22;15.55;;;10.75;;
3101;SDS011;1561;42.666;23.392;2023-07-24T02:10:50;16.08;;;10.63;;
3101;SDS011;1561;42.666;23.392;2023-07-24T02:13:18;12.57;;;9.68;;
3101;SDS011;1561;42.666;23.392;2023-07-24T02:15:45;13.10;;;10.27;;
3101;SDS011;1561;42.666;23.392;2023-07-24T02:18:14;13.68;;;10.20;;
3101;SDS011;1561;42.666;23.392;2023-07-24T02:20:41;15.32;;;11.00;;
3101;SDS011;1561;42.666;23.392;2023-07-24T02:23:15;14.05;;;11.43;;
3101;SDS011;1561;42.666;23.392;2023-07-24T02:25:43;15.98;;;10.85;;
3101;SDS011;1561;42.666;23.392;2023-07-24T02:28:10;11.40;;;9.85;;
3101;SDS011;1561;42.666;23.392;2023-07-24T02:30:38;13.70;;;9.65;;
3101;SDS011;1561;42.666;23.392;2023-07-24T02:33:05;13.23;;;10.00;;
3101;SDS011;1561;42.666;23.392;2023-07-24T02:35:39;15.20;;;10.88;;
3101;SDS011;1561;42.666;23.392;2023-07-24T02:38:09;15.57;;;10.73;;
3101;SDS011;1561;42.666;23.392;2023-07-24T02:40:36;13.50;;;10.88;;
3101;SDS011;1561;42.666;23.392;2023-07-24T02:43:04;15.63;;;10.27;;
3101;SDS011;1561;42.666;23.392;2023-07-24T02:45:33;11.52;;;9.82;;
3101;SDS011;1561;42.666;23.392;2023-07-24T02:48:05;19.27;;;10.55;;
3101;SDS011;1561;42.666;23.392;2023-07-24T02:50:34;12.35;;;10.18;;
3101;SDS011;1561;42.666;23.392;2023-07-24T02:53:07;14.02;;;9.80;;
3101;SDS011;1561;42.666;23.392;2023-07-24T02:55:33;13.68;;;10.57;;
3101;SDS011;1561;42.666;23.392;2023-07-24T02:58:00;13.18;;;10.25;;
3101;SDS011;1561;42.666;23.392;2023-07-24T03:00:27;12.10;;;10.38;;
3101;SDS011;1561;42.666;23.392;2023-07-24T03:02:55;14.75;;;10.90;;
3101;SDS011;1561;42.666;23.392;2023-07-24T03:05:23;14.10;;;10.93;;
3101;SDS011;1561;42.666;23.392;2023-07-24T03:07:51;15.85;;;11.38;;
3101;SDS011;1561;42.666;23.392;2023-07-24T03:10:19;13.82;;;10.63;;
3101;SDS011;1561;42.666;23.392;2023-07-24T03:12:48;17.02;;;11.27;;
3101;SDS011;1561;42.666;23.392;2023-07-24T03:15:16;17.48;;;11.48;;
3101;SDS011;1561;42.666;23.392;2023-07-24T03:17:43;15.93;;;11.18;;
3101;SDS011;1561;42.666;23.392;2023-07-24T03:20:13;14.88;;;11.15;;
3101;SDS011;1561;42.666;23.392;2023-07-24T03:22:41;14.65;;;11.93;;
3101;SDS011;1561;42.666;23.392;2023-07-24T03:25:08;14.30;;;11.30;;
3101;SDS011;1561;42.666;23.392;2023-07-24T03:27:38;15.00;;;10.50;;
3101;SDS011;1561;42.666;23.392;2023-07-24T03:30:05;17.48;;;11.73;;
3101;SDS011;1561;42.666;23.392;2023-07-24T03:32:36;13.40;;;11.07;;
3101;SDS011;1561;42.666;23.392;2023-07-24T03:35:03;16.42;;;11.35;;
3101;SDS011;1561;42.666;23.392;2023-07-24T03:37:31;20.08;;;11.07;;
3101;SDS011;1561;42.666;23.392;2023-07-24T03:39:58;12.98;;;10.88;;
3101;SDS011;1561;42.666;23.392;2023-07-24T03:42:26;13.73;;;10.60;;
3101;SDS011;1561;42.666;23.392;2023-07-24T03:44:55;12.80;;;10.00;;
3101;SDS011;1561;42.666;23.392;2023-07-24T03:47:23;12.25;;;9.95;;
3101;SDS011;1561;42.666;23.392;2023-07-24T03:49:51;16.05;;;10.05;;
3101;SDS011;1561;42.666;23.392;2023-07-24T03:52:20;11.75;;;9.80;;
3101;SDS011;1561;42.666;23.392;2023-07-24T03:54:51;14.85;;;11.35;;
3101;SDS011;1561;42.666;23.392;2023-07-24T03:57:18;13.02;;;11.25;;
3101;SDS011;1561;42.666;23.392;2023-07-24T03:59:48;13.30;;;10.73;;
3101;SDS011;1561;42.666;23.392;2023-07-24T04:02:18;15.10;;;12.20;;
3101;SDS011;1561;42.666;23.392;2023-07-24T04:04:45;13.27;;;11.85;;
3101;SDS011;1561;42.666;23.392;2023-07-24T04:07:16;15.80;;;11.82;;
3101;SDS011;1561;42.666;23.392;2023-07-24T04:09:42;13.82;;;11.75;;
3101;SDS011;1561;42.666;23.392;2023-07-24T04:12:11;17.83;;;13.52;;
3101;SDS011;1561;42.666;23.392;2023-07-24T04:14:39;23.02;;;18.05;;
3101;SDS011;1561;42.666;23.392;2023-07-24T04:17:09;22.40;;;15.32;;
3101;SDS011;1561;42.666;23.392;2023-07-24T04:19:41;25.02;;;16.77;;
3101;SDS011;1561;42.666;23.392;2023-07-24T04:22:10;28.15;;;21.02;;
3101;SDS011;1561;42.666;23.392;2023-07-24T04:24:37;38.30;;;24.92;;
3101;SDS011;1561;42.666;23.392;2023-07-24T04:27:04;33.15;;;22.25;;
3101;SDS011;1561;42.666;23.392;2023-07-24T04:29:31;23.55;;;17.70;;
3101;SDS011;1561;42.666;23.392;2023-07-24T04:31:58;17.02;;;13.45;;
3101;SDS011;1561;42.666;23.392;2023-07-24T04:34:28;15.10;;;12.80;;
3101;SDS011;1561;42.666;23.392;2023-07-24T04:36:59;13.98;;;12.48;;
3101;SDS011;1561;42.666;23.392;2023-07-24T04:39:27;13.15;;;11.68;;
3101;SDS011;1561;42.666;23.392;2023-07-24T04:41:56;20.08;;;12.63;;
3101;SDS011;1561;42.666;23.392;2023-07-24T04:44:25;13.65;;;11.80;;
3101;SDS011;1561;42.666;23.392;2023-07-24T04:46:52;12.07;;;10.85;;
3101;SDS011;1561;42.666;23.392;2023-07-24T04:49:20;12.38;;;11.07;;
3101;SDS011;1561;42.666;23.392;2023-07-24T04:51:47;13.80;;;10.75;;
3101;SDS011;1561;42.666;23.392;2023-07-24T04:54:16;13.68;;;11.20;;
3101;SDS011;1561;42.666;23.392;2023-07-24T04:56:43;15.10;;;11.60;;
3101;SDS011;1561;42.666;23.392;2023-07-24T04:59:10;11.95;;;10.75;;
3101;SDS011;1561;42.666;23.392;2023-07-24T05:01:38;13.10;;;11.80;;
3101;SDS011;1561;42.666;23.392;2023-07-24T05:04:14;12.77;;;11.20;;
3101;SDS011;1561;42.666;23.392;2023-07-24T05:06:43;14.70;;;11.15;;
3101;SDS011;1561;42.666;23.392;2023-07-24T05:09:12;13.50;;;12.00;;
3101;SDS011;1561;42.666;23.392;2023-07-24T05:11:42;16.27;;;13.13;;
3101;SDS011;1561;42.666;23.392;2023-07-24T05:14:09;15.05;;;12.63;;
3101;SDS011;1561;42.666;23.392;2023-07-24T05:16:36;14.80;;;12.60;;
3101;SDS011;1561;42.666;23.392;2023-07-24T05:19:03;23.63;;;18.60;;
3101;SDS011;1561;42.666;23.392;2023-07-24T05:21:32;15.07;;;11.45;;
3101;SDS011;1561;42.666;23.392;2023-07-24T05:23:59;20.20;;;12.77;;
3101;SDS011;1561;42.666;23.392;2023-07-24T05:26:27;14.57;;;12.18;;
3101;SDS011;1561;42.666;23.392;2023-07-24T05:28:55;14.95;;;12.23;;
3101;SDS011;1561;42.666;23.392;2023-07-24T05:31:22;13.95;;;12.48;;
3101;SDS011;1561;42.666;23.392;2023-07-24T05:33:50;18.23;;;12.38;;
3101;SDS011;1561;42.666;23.392;2023-07-24T05:36:19;12.20;;;11.00;;
3101;SDS011;1561;42.666;23.392;2023-07-24T05:38:47;13.65;;;12.30;;
3101;SDS011;1561;42.666;23.392;2023-07-24T05:41:15;11.05;;;9.88;;
3101;SDS011;1561;42.666;23.392;2023-07-24T05:43:46;11.60;;;10.52;;
3101;SDS011;1561;42.666;23.392;2023-07-24T05:46:19;11.30;;;10.25;;
3101;SDS011;1561;42.666;23.392;2023-07-24T05:48:46;13.88;;;11.02;;
3101;SDS011;1561;42.666;23.392;2023-07-24T05:51:15;14.68;;;12.73;;
3101;SDS011;1561;42.666;23.392;2023-07-24T05:53:44;15.50;;;13.77;;
3101;SDS011;1561;42.666;23.392;2023-07-24T05:56:11;19.52;;;16.83;;
3101;SDS011;1561;42.666;23.392;2023-07-24T05:58:38;16.20;;;13.27;;
3101;SDS011;1561;42.666;23.392;2023-07-24T06:01:06;17.00;;;11.25;;
3101;SDS011;1561;42.666;23.392;2023-07-24T06:03:37;16.05;;;11.55;;
3101;SDS011;1561;42.666;23.392;2023-07-24T06:06:05;12.00;;;10.30;;
3101;SDS011;1561;42.666;23.392;2023-07-24T06:08:32;14.05;;;11.20;;
3101;SDS011;1561;42.666;23.392;2023-07-24T06:10:59;13.45;;;10.32;;
3101;SDS011;1561;42.666;23.392;2023-07-24T06:13:26;11.38;;;10.18;;
3101;SDS011;1561;42.666;23.392;2023-07-24T06:15:54;14.13;;;9.50;;
3101;SDS011;1561;42.666;23.392;2023-07-24T06:18:20;13.70;;;10.27;;
3101;SDS011;1561;42.666;23.392;2023-07-24T06:20:57;20.75;;;10.05;;
3101;SDS011;1561;42.666;23.392;2023-07-24T06:23:23;9.90;;;8.88;;
3101;SDS011;1561;42.666;23.392;2023-07-24T06:25:53;11.15;;;9.32;;
3101;SDS011;1561;42.666;23.392;2023-07-24T06:28:21;12.90;;;9.57;;
3101;SDS011;1561;42.666;23.392;2023-07-24T06:30:47;11.63;;;9.73;;
3101;SDS011;1561;42.666;23.392;2023-07-24T06:33:19;11.05;;;9.10;;
3101;SDS011;1561;42.666;23.392;2023-07-24T06:35:47;10.18;;;9.18;;
3101;SDS011;1561;42.666;23.392;2023-07-24T06:38:17;9.70;;;8.80;;
3101;SDS011;1561;42.666;23.392;2023-07-24T06:40:46;10.73;;;9.55;;
3101;SDS011;1561;42.666;23.392;2023-07-24T06:43:13;11.43;;;9.52;;
3101;SDS011;1561;42.666;23.392;2023-07-24T06:45:39;11.80;;;10.60;;
3101;SDS011;1561;42.666;23.392;2023-07-24T06:48:08;10.73;;;9.63;;
3101;SDS011;1561;42.666;23.392;2023-07-24T06:50:35;10.63;;;9.48;;
3101;SDS011;1561;42.666;23.392;2023-07-24T06:53:02;9.63;;;8.73;;
3101;SDS011;1561;42.666;23.392;2023-07-24T06:55:33;9.80;;;8.82;;
3101;SDS011;1561;42.666;23.392;2023-07-24T06:58:01;10.48;;;9.48;;
3101;SDS011;1561;42.666;23.392;2023-07-24T07:00:31;10.60;;;9.43;;
3101;SDS011;1561;42.666;23.392;2023-07-24T07:02:59;10.85;;;9.82;;
3101;SDS011;1561;42.666;23.392;2023-07-24T07:05:26;11.38;;;9.77;;
3101;SDS011;1561;42.666;23.392;2023-07-24T07:07:54;10.50;;;8.18;;
3101;SDS011;1561;42.666;23.392;2023-07-24T07:10:22;10.52;;;9.52;;
3101;SDS011;1561;42.666;23.392;2023-07-24T07:12:52;11.75;;;10.02;;
3101;SDS011;1561;42.666;23.392;2023-07-24T07:15:20;9.35;;;8.45;;
3101;SDS011;1561;42.666;23.392;2023-07-24T07:17:47;11.63;;;8.90;;
3101;SDS011;1561;42.666;23.392;2023-07-24T07:20:15;11.13;;;9.88;;
3101;SDS011;1561;42.666;23.392;2023-07-24T07:22:42;10.98;;;9.98;;
3101;SDS011;1561;42.666;23.392;2023-07-24T07:25:09;10.63;;;9.57;;
3101;SDS011;1561;42.666;23.392;2023-07-24T07:27:38;10.40;;;9.30;;
3101;SDS011;1561;42.666;23.392;2023-07-24T07:30:08;15.50;;;10.02;;
3101;SDS011;1561;42.666;23.392;2023-07-24T07:32:39;11.00;;;9.80;;
3101;SDS011;1561;42.666;23.392;2023-07-24T07:35:07;11.55;;;9.98;;
3101;SDS011;1561;42.666;23.392;2023-07-24T07:37:36;10.88;;;9.88;;
3101;SDS011;1561;42.666;23.392;2023-07-24T07:40:03;11.05;;;10.02;;
3101;SDS011;1561;42.666;23.392;2023-07-24T07:42:33;11.50;;;10.23;;
3101;SDS011;1561;42.666;23.392;2023-07-24T07:45:02;10.80;;;9.70;;
3101;SDS011;1561;42.666;23.392;2023-07-24T07:47:32;14.80;;;11.45;;
3101;SDS011;1561;42.666;23.392;2023-07-24T07:50:06;11.18;;;10.07;;
3101;SDS011;1561;42.666;23.392;2023-07-24T07:52:35;11.52;;;10.48;;
3101;SDS011;1561;42.666;23.392;2023-07-24T07:55:02;11.07;;;10.07;;
3101;SDS011;1561;42.666;23.392;2023-07-24T07:57:31;10.85;;;9.75;;
3101;SDS011;1561;42.666;23.392;2023-07-24T08:00:01;11.15;;;10.15;;
3101;SDS011;1561;42.666;23.392;2023-07-24T08:02:38;11.65;;;9.88;;
3101;SDS011;1561;42.666;23.392;2023-07-24T08:05:06;10.00;;;9.20;;
3101;SDS011;1561;42.666;23.392;2023-07-24T08:07:34;12.18;;;10.98;;
3101;SDS011;1561;42.666;23.392;2023-07-24T08:10:03;11.27;;;10.27;;
3101;SDS011;1561;42.666;23.392;2023-07-24T08:12:31;15.38;;;11.02;;
3101;SDS011;1561;42.666;23.392;2023-07-24T08:14:59;11.73;;;10.52;;
3101;SDS011;1561;42.666;23.392;2023-07-24T08:17:27;11.27;;;10.27;;
3101;SDS011;1561;42.666;23.392;2023-07-24T08:19:55;12.45;;;11.10;;
3101;SDS011;1561;42.666;23.392;2023-07-24T08:22:25;12.93;;;11.40;;
3101;SDS011;1561;42.666;23.392;2023-07-24T08:24:52;13.48;;;12.18;;
3101;SDS011;1561;42.666;23.392;2023-07-24T08:27:24;13.18;;;10.55;;
3101;SDS011;1561;42.666;23.392;2023-07-24T08:29:52;13.50;;;11.15;;
3101;SDS011;1561;42.666;23.392;2023-07-24T08:32:19;14.55;;;12.63;;
3101;SDS011;1561;42.666;23.392;2023-07-24T08:34:46;14.50;;;13.05;;
3101;SDS011;1561;42.666;23.392;2023-07-24T08:37:15;12.77;;;11.55;;
3101;SDS011;1561;42.666;23.392;2023-07-24T08:39:41;12.63;;;11.15;;
3101;SDS011;1561;42.666;23.392;2023-07-24T08:42:09;12.90;;;11.60;;
3101;SDS011;1561;42.666;23.392;2023-07-24T08:44:39;14.73;;;12.35;;
3101;SDS011;1561;42.666;23.392;2023-07-24T08:47:10;19.67;;;17.50;;
3101;SDS011;1561;42.666;23.392;2023-07-24T08:49:43;19.08;;;17.17;;
3101;SDS011;1561;42.666;23.392;2023-07-24T08:52:12;13.50;;;12.15;;
3101;SDS011;1561;42.666;23.392;2023-07-24T08:54:43;19.17;;;16.70;;
3101;SDS011;1561;42.666;23.392;2023-07-24T08:57:11;28.08;;;25.00;;
3101;SDS011;1561;42.666;23.392;2023-07-24T08:59:40;13.65;;;11.60;;
3101;SDS011;1561;42.666;23.392;2023-07-24T09:02:10;13.95;;;12.65;;
3101;SDS011;1561;42.666;23.392;2023-07-24T09:04:44;12.90;;;11.70;;
3101;SDS011;1561;42.666;23.392;2023-07-24T09:07:11;18.38;;;13.13;;
3101;SDS011;1561;42.666;23.392;2023-07-24T09:09:39;12.63;;;11.52;;
3101;SDS011;1561;42.666;23.392;2023-07-24T09:12:07;12.85;;;11.70;;
3101;SDS011;1561;42.666;23.392;2023-07-24T09:14:34;15.52;;;12.20;;
3101;SDS011;1561;42.666;23.392;2023-07-24T09:17:04;13.75;;;11.73;;
3101;SDS011;1561;42.666;23.392;2023-07-24T09:19:32;13.63;;;12.23;;
3101;SDS011;1561;42.666;23.392;2023-07-24T09:22:10;13.80;;;12.40;;
3101;SDS011;1561;42.666;23.392;2023-07-24T09:24:48;13.68;;;12.45;;
3101;SDS011;1561;42.666;23.392;2023-07-24T09:27:19;12.50;;;11.35;;
3101;SDS011;1561;42.666;23.392;2023-07-24T09:29:48;14.52;;;13.02;;
3101;SDS011;1561;42.666;23.392;2023-07-24T09:32:21;13.20;;;11.80;;
3101;SDS011;1561;42.666;23.392;2023-07-24T09:34:50;14.85;;;11.82;;
3101;SDS011;1561;42.666;23.392;2023-07-24T09:37:26;13.75;;;12.35;;
3101;SDS011;1561;42.666;23.392;2023-07-24T09:39:53;13.32;;;12.02;;
3101;SDS011;1561;42.666;23.392;2023-07-24T09:42:29;12.88;;;11.63;;
3101;SDS011;1561;42.666;23.392;2023-07-24T09:44:57;12.90;;;11.80;;
3101;SDS011;1561;42.666;23.392;2023-07-24T09:47:23;13.35;;;12.07;;
3101;SDS011;1561;42.666;23.392;2023-07-24T09:49:52;13.27;;;12.02;;
3101;SDS011;1561;42.666;23.392;2023-07-24T09:52:19;13.10;;;11.82;;
3101;SDS011;1561;42.666;23.392;2023-07-24T09:54:49;16.02;;;12.10;;
3101;SDS011;1561;42.666;23.392;2023-07-24T09:57:22;12.50;;;11.20;;
3101;SDS011;1561;42.666;23.392;2023-07-24T09:59:53;15.27;;;11.55;;
3101;SDS011;1561;42.666;23.392;2023-07-24T10:02:24;14.07;;;10.93;;
3101;SDS011;1561;42.666;23.392;2023-07-24T10:04:52;13.73;;;12.30;;
3101;SDS011;1561;42.666;23.392;2023-07-24T10:07:22;18.00;;;11.85;;
3101;SDS011;1561;42.666;23.392;2023-07-24T10:09:50;14.70;;;11.55;;
3101;SDS011;1561;42.666;23.392;2023-07-24T10:12:18;15.18;;;11.90;;
3101;SDS011;1561;42.666;23.392;2023-07-24T10:14:47;12.65;;;11.65;;
3101;SDS011;1561;42.666;23.392;2023-07-24T10:17:33;13.48;;;11.90;;
3101;SDS011;1561;42.666;23.392;2023-07-24T10:20:01;12.38;;;11.07;;
3101;SDS011;1561;42.666;23.392;2023-07-24T10:22:33;13.15;;;11.85;;
3101;SDS011;1561;42.666;23.392;2023-07-24T10:25:00;13.27;;;11.88;;
3101;SDS011;1561;42.666;23.392;2023-07-24T10:27:29;12.13;;;10.93;;
3101;SDS011;1561;42.666;23.392;2023-07-24T10:29:58;15.45;;;11.93;;
3101;SDS011;1561;42.666;23.392;2023-07-24T10:32:31;15.02;;;11.90;;
3101;SDS011;1561;42.666;23.392;2023-07-24T10:35:06;16.50;;;14.52;;
3101;SDS011;1561;42.666;23.392;2023-07-24T10:37:34;15.90;;;12.27;;
3101;SDS011;1561;42.666;23.392;2023-07-24T10:40:02;15.43;;;12.38;;
3101;SDS011;1561;42.666;23.392;2023-07-24T10:42:31;15.57;;;12.18;;
3101;SDS011;1561;42.666;23.392;2023-07-24T10:45:05;12.70;;;11.48;;
3101;SDS011;1561;42.666;23.392;2023-07-24T10:47:35;18.60;;;12.52;;
3101;SDS011;1561;42.666;23.392;2023-07-24T10:50:02;17.35;;;11.98;;
3101;SDS011;1561;42.666;23.392;2023-07-24T10:52:32;13.68;;;11.63;;
3101;SDS011;1561;42.666;23.392;2023-07-24T10:55:00;14.43;;;12.38;;
3101;SDS011;1561;42.666;23.392;2023-07-24T10:57:28;14.48;;;12.05;;
3101;SDS011;1561;42.666;23.392;2023-07-24T10:59:56;13.50;;;11.68;;
3101;SDS011;1561;42.666;23.392;2023-07-24T11:02:25;14.02;;;11.77;;
3101;SDS011;1561;42.666;23.392;2023-07-24T11:04:55;17.52;;;12.23;;
3101;SDS011;1561;42.666;23.392;2023-07-24T11:07:32;13.00;;;11.20;;
3101;SDS011;1561;42.666;23.392;2023-07-24T11:10:01;14.38;;;11.50;;
3101;SDS011;1561;42.666;23.392;2023-07-24T11:12:28;12.68;;;11.35;;
3101;SDS011;1561;42.666;23.392;2023-07-24T11:14:57;11.93;;;10.70;;
3101;SDS011;1561;42.666;23.392;2023-07-24T11:17:33;11.35;;;10.25;;
3101;SDS011;1561;42.666;23.392;2023-07-24T11:20:10;14.57;;;11.23;;
3101;SDS011;1561;42.666;23.392;2023-07-24T11:22:39;13.73;;;10.68;;
3101;SDS011;1561;42.666;23.392;2023-07-24T11:25:09;16.95;;;11.98;;
3101;SDS011;1561;42.666;23.392;2023-07-24T11:27:42;14.05;;;11.23;;
3101;SDS011;1561;42.666;23.392;2023-07-24T11:30:10;15.85;;;10.68;;
3101;SDS011;1561;42.666;23.392;2023-07-24T11:32:38;12.57;;;10.80;;
3101;SDS011;1561;42.666;23.392;2023-07-24T11:35:06;12.32;;;11.00;;
3101;SDS011;1561;42.666;23.392;2023-07-24T11:37:38;13.25;;;10.00;;
3101;SDS011;1561;42.666;23.392;2023-07-24T11:40:08;10.18;;;8.35;;
3101;SDS011;1561;42.666;23.392;2023-07-24T11:42:39;11.70;;;10.43;;
3101;SDS011;1561;42.666;23.392;2023-07-24T11:45:09;10.95;;;9.80;;
3101;SDS011;1561;42.666;23.392;2023-07-24T11:50:19;11.27;;;10.13;;
3101;SDS011;1561;42.666;23.392;2023-07-24T11:52:49;14.23;;;11.23;;
3101;SDS011;1561;42.666;23.392;2023-07-24T11:55:29;16.48;;;11.25;;
3101;SDS011;1561;42.666;23.392;2023-07-24T11:57:58;12.63;;;10.40;;
3101;SDS011;1561;42.666;23.392;2023-07-24T12:00:26;11.68;;;9.82;;
3101;SDS011;1561;42.666;23.392;2023-07-24T12:02:58;14.30;;;9.98;;
3101;SDS011;1561;42.666;23.392;2023-07-24T12:05:26;11.48;;;9.20;;
3101;SDS011;1561;42.666;23.392;2023-07-24T12:07:54;10.60;;;9.55;;
3101;SDS011;1561;42.666;23.392;2023-07-24T12:10:25;12.93;;;9.80;;
3101;SDS011;1561;42.666;23.392;2023-07-24T12:12:58;10.98;;;9.88;;
3101;SDS011;1561;42.666;23.392;2023-07-24T12:15:30;11.10;;;9.18;;
3101;SDS011;1561;42.666;23.392;2023-07-24T12:18:02;10.70;;;9.48;;
3101;SDS011;1561;42.666;23.392;2023-07-24T12:20:29;10.65;;;9.65;;
3101;SDS011;1561;42.666;23.392;2023-07-24T12:23:00;13.07;;;9.65;;
3101;SDS011;1561;42.666;23.392;2023-07-24T12:25:38;12.35;;;9.32;;
3101;SDS011;1561;42.666;23.392;2023-07-24T12:28:05;12.02;;;10.70;;
3101;SDS011;1561;42.666;23.392;2023-07-24T12:30:32;15.00;;;10.30;;
3101;SDS011;1561;42.666;23.392;2023-07-24T12:33:02;11.40;;;10.15;;
3101;SDS011;1561;42.666;23.392;2023-07-24T12:35:29;14.10;;;10.25;;
3101;SDS011;1561;42.666;23.392;2023-07-24T12:37:56;12.52;;;11.02;;
3101;SDS011;1561;42.666;23.392;2023-07-24T12:40:28;10.95;;;9.85;;
3101;SDS011;1561;42.666;23.392;2023-07-24T12:42:55;11.55;;;10.30;;
3101;SDS011;1561;42.666;23.392;2023-07-24T12:45:22;21.25;;;16.75;;
3101;SDS011;1561;42.666;23.392;2023-07-24T12:47:50;11.85;;;10.65;;
3101;SDS011;1561;42.666;23.392;2023-07-24T12:50:20;14.60;;;10.20;;
3101;SDS011;1561;42.666;23.392;2023-07-24T12:52:51;11.77;;;10.27;;
3101;SDS011;1561;42.666;23.392;2023-07-24T12:55:18;12.35;;;10.90;;
3101;SDS011;1561;42.666;23.392;2023-07-24T12:57:47;11.90;;;10.50;;
3101;SDS011;1561;42.666;23.392;2023-07-24T13:00:14;12.63;;;10.60;;
3101;SDS011;1561;42.666;23.392;2023-07-24T13:02:42;12.02;;;10.15;;
3101;SDS011;1561;42.666;23.392;2023-07-24T13:05:09;11.48;;;10.27;;
3101;SDS011;1561;42.666;23.392;2023-07-24T13:07:39;11.02;;;9.80;;
3101;SDS011;1561;42.666;23.392;2023-07-24T13:10:10;11.63;;;10.60;;
3101;SDS011;1561;42.666;23.392;2023-07-24T13:12:38;11.52;;;10.40;;
3101;SDS011;1561;42.666;23.392;2023-07-24T13:15:07;10.90;;;9.13;;
3101;SDS011;1561;42.666;23.392;2023-07-24T13:17:34;13.10;;;10.15;;
3101;SDS011;1561;42.666;23.392;2023-07-24T13:20:01;10.93;;;9.93;;
3101;SDS011;1561;42.666;23.392;2023-07-24T13:22:28;10.40;;;9.40;;
3101;SDS011;1561;42.666;23.392;2023-07-24T13:24:56;13.90;;;10.27;;
3101;SDS011;1561;42.666;23.392;2023-07-24T13:27:26;11.57;;;9.80;;
3101;SDS011;1561;42.666;23.392;2023-07-24T13:29:53;11.63;;;9.35;;
3101;SDS011;1561;42.666;23.392;2023-07-24T13:32:25;13.40;;;10.98;;
3101;SDS011;1561;42.666;23.392;2023-07-24T13:34:53;10.77;;;9.68;;
3101;SDS011;1561;42.666;23.392;2023-07-24T13:37:24;11.30;;;10.15;;
3101;SDS011;1561;42.666;23.392;2023-07-24T13:39:53;11.68;;;10.45;;
3101;SDS011;1561;42.666;23.392;2023-07-24T13:42:20;10.95;;;9.80;;
3101;SDS011;1561;42.666;23.392;2023-07-24T13:44:50;16.02;;;9.50;;
3101;SDS011;1561;42.666;23.392;2023-07-24T13:47:17;11.57;;;10.48;;
3101;SDS011;1561;42.666;23.392;2023-07-24T13:49:46;11.63;;;10.27;;
3101;SDS011;1561;42.666;23.392;2023-07-24T13:52:13;12.05;;;10.93;;
3101;SDS011;1561;42.666;23.392;2023-07-24T13:54:41;11.32;;;9.85;;
3101;SDS011;1561;42.666;23.392;2023-07-24T13:57:08;10.93;;;9.93;;
3101;SDS011;1561;42.666;23.392;2023-07-24T13:59:36;12.35;;;11.25;;
3101;SDS011;1561;42.666;23.392;2023-07-24T14:02:04;11.32;;;10.15;;
3101;SDS011;1561;42.666;23.392;2023-07-24T14:04:32;11.90;;;10.00;;
3101;SDS011;1561;42.666;23.392;2023-07-24T14:07:05;12.57;;;9.95;;
3101;SDS011;1561;42.666;23.392;2023-07-24T14:09:32;11.23;;;10.13;;
3101;SDS011;1561;42.666;23.392;2023-07-24T14:12:00;11.73;;;9.95;;
3101;SDS011;1561;42.666;23.392;2023-07-24T14:14:27;13.45;;;11.10;;
3101;SDS011;1561;42.666;23.392;2023-07-24T14:16:54;13.20;;;10.88;;
3101;SDS011;1561;42.666;23.392;2023-07-24T14:19:21;13.05;;;11.77;;
3101;SDS011;1561;42.666;23.392;2023-07-24T14:21:51;11.35;;;10.15;;
3101;SDS011;1561;42.666;23.392;2023-07-24T14:24:21;12.77;;;11.48;;
3101;SDS011;1561;42.666;23.392;2023-07-24T14:26:48;14.45;;;12.98;;
3101;SDS011;1561;42.666;23.392;2023-07-24T14:29:21;10.90;;;9.85;;
3101;SDS011;1561;42.666;23.392;2023-07-24T14:31:48;13.48;;;10.10;;
3101;SDS011;1561;42.666;23.392;2023-07-24T14:34:17;11.00;;;9.88;;
3101;SDS011;1561;42.666;23.392;2023-07-24T14:36:44;12.00;;;10.75;;
3101;SDS011;1561;42.666;23.392;2023-07-24T14:39:11;15.85;;;10.32;;
3101;SDS011;1561;42.666;23.392;2023-07-24T14:41:39;19.52;;;15.18;;
3101;SDS011;1561;42.666;23.392;2023-07-24T14:44:07;11.88;;;10.65;;
3101;SDS011;1561;42.666;23.392;2023-07-24T14:46:33;11.52;;;10.32;;
3101;SDS011;1561;42.666;23.392;2023-07-24T14:49:00;12.63;;;10.57;;
3101;SDS011;1561;42.666;23.392;2023-07-24T14:51:31;12.60;;;11.27;;